Terminal Aerodrome Forecast
Issued by NWS Knoxville/Tri Cities, TN

Home | Current Version | Previous Version | Text Only | Print | Product List | Glossary On
Versions: 1 2 3 4 5 6 7 8 9 10 11 12
000
FTUS44 KMRX 301720
TAFTYS
TAF
KTYS 301720Z 3018/0118 19012G25KT P6SM VCSH SCT050 BKN200
     FM010000 21014G25KT P6SM VCSH BKN020
     FM010800 21016G25KT 6SM -SHRA VCTS BKN020CB
     FM011600 23014G25KT P6SM SCT030 BKN050=

USA.gov is the U.S. government's official web portal to all federal, state and local government web resources and services.